Time;durP1;ratioP1;P1;durP2;ratioP2;P2;SDS_P1;SDS_P2;PMS_P1;PMS_P2;Temp;Humidity;BMP_temperature;BMP_pressure;BME280_temperature;BME280_humidity;BME280_pressure;Samples;Min_cycle;Max_cycle;Signal;HPM_P1;HPM_P2
2022/06/04 00:01:32;;;;;;;8.40;4.97;;;;;;;17.83;63.33;101654.05;1629464;88;27926;-55
2022/06/04 00:03:59;;;;;;;9.58;4.37;;;;;;;17.78;63.28;101652.34;1629459;86;26275;-54
2022/06/04 00:06:26;;;;;;;11.73;4.58;;;;;;;17.76;63.33;101653.00;1647151;85;27494;-53
2022/06/04 00:08:53;;;;;;;10.68;4.55;;;;;;;17.73;63.58;101657.39;1680150;84;25847;-55
2022/06/04 00:16:51;;;;;;;7.15;4.03;;;;;;;17.67;63.46;101654.81;1680355;85;25716;-55
2022/06/04 00:19:17;;;;;;;8.40;4.12;;;;;;;17.62;63.95;101650.37;1710295;82;27589;-55
2022/06/04 00:21:44;;;;;;;13.15;3.65;;;;;;;17.60;63.85;101644.76;1706636;84;25805;-55
2022/06/04 00:24:12;;;;;;;9.35;3.95;;;;;;;17.60;64.44;101644.76;1706675;82;25716;-55
2022/06/04 00:26:39;;;;;;;8.90;3.60;;;;;;;17.60;64.40;101631.98;1706753;84;25923;-55
2022/06/04 00:29:07;;;;;;;8.13;4.20;;;;;;;17.57;64.42;101636.38;1705374;84;25828;-55
2022/06/04 00:31:36;;;;;;;12.98;4.25;;;;;;;17.53;64.42;101639.94;1704329;84;27497;-55
2022/06/04 00:34:05;;;;;;;14.45;4.60;;;;;;;17.52;64.37;101631.95;1704480;84;25817;-55
2022/06/04 00:36:32;;;;;;;12.70;4.70;;;;;;;17.49;64.62;101645.38;1678095;84;25890;-55
2022/06/04 00:39:00;;;;;;;14.50;4.87;;;;;;;17.47;64.96;101645.19;1704176;84;25842;-54
2022/06/04 00:41:54;;;;;;;10.25;4.30;;;;;;;17.47;65.10;101643.31;1704295;84;25703;-55
2022/06/04 00:44:35;;;;;;;12.30;5.00;;;;;;;17.45;65.16;101647.21;1704388;84;27764;-55
2022/06/04 00:47:11;;;;;;;18.10;4.83;;;;;;;17.40;64.90;101648.18;1704144;84;26245;-54
2022/06/04 00:49:38;;;;;;;12.47;4.60;;;;;;;17.34;65.32;101645.62;1704525;84;25808;-55
2022/06/04 00:52:10;;;;;;;10.68;3.55;;;;;;;17.28;65.48;101644.88;1667893;84;25797;-55
2022/06/04 00:54:38;;;;;;;13.32;4.05;;;;;;;17.23;65.65;101649.95;1656980;86;25741;-55
2022/06/04 00:57:19;;;;;;;14.38;3.60;;;;;;;17.13;65.34;101648.67;1656763;85;28160;-54
2022/06/04 01:00:17;;;;;;;6.03;3.10;;;;;;;17.10;65.58;101648.48;1657456;85;25945;-54
2022/06/04 01:03:09;;;;;;;11.38;4.37;;;;;;;17.08;65.94;101642.34;1663647;86;25506;-54
2022/06/04 01:06:18;;;;;;;9.30;4.53;;;;;;;17.11;65.91;101643.92;1662033;85;25958;-56
2022/06/04 01:09:11;;;;;;;10.68;4.90;;;;;;;17.11;65.79;101650.72;1712664;83;25729;-54
2022/06/04 01:12:09;;;;;;;23.67;4.87;;;;;;;17.09;66.04;101654.09;1705754;82;26896;-55
2022/06/04 01:14:35;;;;;;;13.68;3.95;;;;;;;17.06;66.01;101656.63;1705813;82;25733;-55
2022/06/04 01:17:16;;;;;;;10.75;4.28;;;;;;;17.04;66.13;101650.48;1706372;82;25804;-55
2022/06/04 01:20:17;;;;;;;14.00;4.47;;;;;;;17.00;66.17;101645.88;1707958;83;27985;-55
2022/06/04 01:23:25;;;;;;;11.73;4.53;;;;;;;16.94;66.00;101649.23;1707656;82;25942;-56
2022/06/04 01:26:31;;;;;;;13.40;4.17;;;;;;;16.87;66.03;101654.88;1678610;84;27568;-54
2022/06/04 01:29:09;;;;;;;12.47;3.92;;;;;;;16.84;66.11;101656.58;1685638;82;25910;-55
2022/06/04 01:31:53;;;;;;;18.80;4.40;;;;;;;16.78;66.49;101654.45;1704437;83;25678;-55
2022/06/04 01:34:25;;;;;;;11.50;3.87;;;;;;;16.76;66.65;101660.06;1702239;84;25816;-55
2022/06/04 01:37:09;;;;;;;8.50;3.72;;;;;;;16.75;66.70;101661.06;1704364;84;25871;-55
2022/06/04 01:42:27;;;;;;;10.53;3.60;;;;;;;16.61;67.10;101648.88;1704024;84;26213;-55
2022/06/04 01:44:59;;;;;;;13.20;3.45;;;;;;;16.57;67.05;101642.90;1704275;84;25487;-54
2022/06/04 01:47:29;;;;;;;10.15;3.08;;;;;;;16.59;67.22;101641.38;1704398;84;25795;-56
2022/06/04 01:49:57;;;;;;;15.80;3.67;;;;;;;16.57;67.45;101642.90;1678278;84;25694;-55
2022/06/04 01:52:32;;;;;;;9.03;2.67;;;;;;;16.56;67.21;101641.70;1685741;84;27436;-55
2022/06/04 01:55:16;;;;;;;4.62;3.12;;;;;;;16.55;67.25;101644.91;1683103;85;25508;-55
2022/06/04 01:58:00;;;;;;;5.50;2.83;;;;;;;16.54;67.31;101642.36;1683499;85;25454;-54
2022/06/04 02:00:32;;;;;;;;;;;;;;;16.56;67.69;101639.83;1685710;85;25948;-54
2022/06/04 02:03:13;;;;;;;5.78;3.17;;;;;;;16.58;67.38;101635.10;1682709;85;25643;-55
2022/06/04 02:05:51;;;;;;;9.40;3.62;;;;;;;16.58;67.38;101635.10;1684147;84;27692;-55
2022/06/04 02:08:42;;;;;;;9.53;3.15;;;;;;;16.58;67.25;101633.74;1706797;84;25756;-55
2022/06/04 02:11:16;;;;;;;6.72;2.87;;;;;;;16.53;67.31;101632.01;1706800;84;25772;-55
2022/06/04 02:13:47;;;;;;;12.68;3.70;;;;;;;16.49;67.29;101637.38;1707144;84;25736;-56
2022/06/04 02:16:34;;;;;;;24.67;3.30;;;;;;;16.47;67.92;101643.98;1706810;84;25793;-56
2022/06/04 02:19:03;;;;;;;12.43;3.33;;;;;;;16.43;67.55;101640.73;1707271;84;27437;-55
2022/06/04 02:21:31;;;;;;;4.75;2.92;;;;;;;16.39;67.55;101642.03;1706743;83;26516;-57
2022/06/04 02:23:59;;;;;;;5.67;2.95;;;;;;;16.37;67.74;101644.91;1706859;84;25812;-55
2022/06/04 02:26:28;;;;;;;12.75;3.33;;;;;;;16.37;67.86;101640.83;1707208;83;26039;-55
2022/06/04 02:28:58;;;;;;;7.10;2.60;;;;;;;16.34;68.06;101642.48;1712827;83;25799;-55
2022/06/04 02:31:52;;;;;;;11.95;3.08;;;;;;;16.33;67.95;101638.58;1704756;84;27559;-56
2022/06/04 02:34:30;;;;;;;9.68;3.67;;;;;;;16.32;67.91;101640.42;1704845;84;25686;-55
2022/06/04 02:37:29;;;;;;;4.75;3.20;;;;;;;16.30;67.84;101643.81;1640900;84;25845;-55
2022/06/04 02:40:07;;;;;;;5.60;2.90;;;;;;;16.32;68.04;101646.37;1704588;83;25823;-55
2022/06/04 02:42:56;;;;;;;5.17;3.25;;;;;;;16.33;67.83;101648.08;1704723;84;25790;-55
2022/06/04 02:45:44;;;;;;;9.60;3.02;;;;;;;16.34;67.62;101651.15;1703563;83;26897;-55
2022/06/04 02:48:22;;;;;;;7.30;3.12;;;;;;;16.31;67.92;101656.39;1704699;83;25820;-56
2022/06/04 02:51:01;;;;;;;5.42;2.77;;;;;;;16.28;67.81;101652.09;1704641;83;26312;-55
2022/06/04 02:53:32;;;;;;;9.78;2.90;;;;;;;16.23;68.04;101657.14;1703418;83;25972;-55
2022/06/04 02:56:04;;;;;;;7.75;2.77;;;;;;;16.23;68.22;101659.85;1704755;84;26031;-55
2022/06/04 02:58:31;;;;;;;7.90;2.72;;;;;;;16.23;68.49;101654.42;1703437;83;28138;-55
2022/06/04 03:01:00;;;;;;;6.42;2.87;;;;;;;16.19;68.59;101653.00;1704446;84;25784;-56
2022/06/04 03:03:27;;;;;;;11.75;2.60;;;;;;;16.16;68.26;101645.67;1704228;84;25792;-56
2022/06/04 03:05:58;;;;;;;7.72;2.47;;;;;;;16.16;68.22;101650.61;1698516;83;26542;-55
2022/06/04 03:08:28;;;;;;;9.38;3.22;;;;;;;16.17;68.43;101646.89;1670081;84;25730;-56
2022/06/04 03:10:56;;;;;;;3.35;2.37;;;;;;;16.19;68.47;101648.09;1661941;84;27584;-55
2022/06/04 03:13:22;;;;;;;4.55;2.62;;;;;;;16.20;68.55;101650.64;1673063;84;25676;-55
2022/06/04 03:15:50;;;;;;;8.05;3.10;;;;;;;16.21;68.47;101647.44;1629335;86;25799;-55
2022/06/04 03:18:18;;;;;;;3.70;2.55;;;;;;;16.21;68.58;101651.52;1629239;86;25974;-56
2022/06/04 03:20:48;;;;;;;5.25;3.15;;;;;;;16.21;68.60;101653.71;1629682;88;25753;-56
2022/06/04 03:23:16;;;;;;;5.22;2.90;;;;;;;16.21;68.84;101652.35;1629160;88;27499;-56
2022/06/04 03:25:43;;;;;;;5.35;2.77;;;;;;;16.24;68.95;101657.49;1629438;86;25840;-56
2022/06/04 03:28:10;;;;;;;5.65;2.85;;;;;;;16.28;68.87;101656.69;1637212;86;25752;-56
2022/06/04 03:30:39;;;;;;;6.92;2.22;;;;;;;16.31;69.09;101658.23;1695446;84;25966;-55
2022/06/04 03:33:07;;;;;;;6.53;2.85;;;;;;;16.27;69.15;101656.33;1698828;83;25724;-56
2022/06/04 03:35:34;;;;;;;7.12;2.90;;;;;;;16.25;69.85;101656.97;1699356;83;27427;-56
2022/06/04 03:38:01;;;;;;;9.75;3.75;;;;;;;16.22;69.56;101662.21;1695563;83;26174;-56
2022/06/04 03:40:28;;;;;;;3.62;2.42;;;;;;;16.26;69.49;101664.98;1695813;83;25745;-55
2022/06/04 03:42:55;;;;;;;6.17;2.62;;;;;;;16.32;69.31;101668.09;1695690;84;25811;-56
2022/06/04 03:45:24;;;;;;;3.80;2.00;;;;;;;16.38;69.29;101661.55;1695780;84;25762;-56
2022/06/04 03:47:51;;;;;;;13.43;2.70;;;;;;;16.43;69.23;101667.37;1723295;83;27502;-56
2022/06/04 03:50:19;;;;;;;12.95;2.85;;;;;;;16.47;69.48;101660.28;1722758;82;25428;-56
2022/06/04 03:52:48;;;;;;;7.70;2.52;;;;;;;16.52;69.23;101666.09;1740277;82;25707;-56
2022/06/04 03:55:18;;;;;;;6.92;2.75;;;;;;;16.57;69.12;101662.43;1740777;82;25740;-56
2022/06/04 03:57:48;;;;;;;7.85;2.30;;;;;;;16.65;69.04;101668.43;1740407;82;25655;-56
2022/06/04 04:00:38;;;;;;;6.55;2.20;;;;;;;16.71;69.00;101667.83;1740478;82;28418;-56
2022/06/04 04:03:15;;;;;;;8.38;3.00;;;;;;;16.76;68.90;101664.66;1740129;82;25694;-56
2022/06/04 04:05:53;;;;;;;5.30;2.85;;;;;;;16.84;69.15;101663.37;1738138;82;25915;-56
2022/06/04 04:08:24;;;;;;;4.60;3.05;;;;;;;16.93;68.91;101667.91;1689524;84;25929;-56
2022/06/04 04:10:51;;;;;;;10.35;2.85;;;;;;;16.99;68.78;101656.39;1690562;84;25849;-56
2022/06/04 04:13:20;;;;;;;6.90;2.40;;;;;;;17.06;68.82;101657.98;1701749;84;27499;-55
2022/06/04 04:15:47;;;;;;;10.63;2.72;;;;;;;17.13;68.74;101661.77;1690899;84;26031;-56
2022/06/04 04:18:15;;;;;;;5.22;2.90;;;;;;;17.22;68.77;101664.03;1699643;84;25801;-56
2022/06/04 04:20:48;;;;;;;14.33;3.40;;;;;;;17.29;68.72;101662.41;1691976;84;25819;-56
2022/06/04 04:23:16;;;;;;;8.35;3.40;;;;;;;17.38;68.68;101665.19;1693955;83;25715;-55
2022/06/04 04:25:43;;;;;;;5.53;3.42;;;;;;;17.46;68.49;101667.96;1691338;83;28278;-56
2022/06/04 04:28:11;;;;;;;10.93;3.60;;;;;;;17.53;68.26;101668.50;1699352;84;25931;-56
2022/06/04 04:30:38;;;;;;;9.68;3.65;;;;;;;17.61;67.86;101662.79;1691406;84;25747;-56
2022/06/04 04:33:06;;;;;;;13.25;3.45;;;;;;;17.66;67.68;101656.34;1694109;83;25777;-56
2022/06/04 04:35:35;;;;;;;14.58;4.00;;;;;;;17.73;67.18;101666.08;1697823;84;25764;-56
2022/06/04 04:38:03;;;;;;;21.55;4.62;;;;;;;17.78;67.11;101667.80;1697727;84;27518;-56
2022/06/04 04:40:31;;;;;;;8.95;4.45;;;;;;;17.83;66.70;101668.19;1697826;83;26029;-56
2022/06/04 04:42:59;;;;;;;10.30;4.87;;;;;;;17.90;66.56;101665.15;1697631;84;25549;-56
2022/06/04 04:45:28;;;;;;;15.55;4.58;;;;;;;17.98;66.42;101671.16;1697397;83;25817;-56
2022/06/04 04:47:56;;;;;;;12.13;4.00;;;;;;;18.04;66.18;101662.84;1697778;83;25752;-56
2022/06/04 04:50:31;;;;;;;19.92;4.33;;;;;;;18.11;65.81;101663.89;1700032;82;27459;-56
2022/06/04 04:52:59;;;;;;;27.30;4.67;;;;;;;18.11;65.07;101663.39;1734925;82;25737;-56
2022/06/04 04:55:26;;;;;;;22.95;4.80;;;;;;;18.12;64.96;101662.88;1732435;82;25802;-56
2022/06/04 04:57:53;;;;;;;19.57;3.85;;;;;;;18.17;64.77;101663.74;1731522;81;25812;-56
2022/06/04 05:00:21;;;;;;;12.65;3.95;;;;;;;18.19;64.53;101661.72;1720600;83;25723;-55
2022/06/04 05:02:48;;;;;;;11.75;4.87;;;;;;;18.22;64.45;101659.52;1721078;83;27476;-56
2022/06/04 05:05:15;;;;;;;11.10;3.90;;;;;;;18.25;64.28;101665.13;1721052;83;25714;-56
2022/06/04 05:07:44;;;;;;;18.92;4.35;;;;;;;18.27;64.19;101665.33;1723438;82;25748;-55
2022/06/04 05:10:13;;;;;;;13.60;4.28;;;;;;;18.31;64.29;101661.77;1690496;83;25961;-55
2022/06/04 05:12:40;;;;;;;29.63;5.60;;;;;;;18.35;64.17;101663.64;1720226;81;25683;-56
2022/06/04 05:15:09;;;;;;;14.70;4.97;;;;;;;18.38;64.31;101661.93;1721765;83;27472;-55
2022/06/04 05:17:36;;;;;;;21.73;5.40;;;;;;;18.39;64.22;101662.28;1716181;83;25962;-55
2022/06/04 05:20:05;;;;;;;12.73;5.10;;;;;;;18.39;64.33;101658.19;1716590;83;25819;-55
2022/06/04 05:22:32;;;;;;;11.05;4.78;;;;;;;18.42;64.38;101666.88;1720108;83;26411;-55
2022/06/04 05:24:59;;;;;;;19.95;4.92;;;;;;;18.48;64.45;101658.56;1721518;82;26516;-55
2022/06/04 05:27:26;;;;;;;11.90;4.55;;;;;;;18.55;64.62;101662.84;1720315;82;28050;-55
2022/06/04 05:29:53;;;;;;;17.80;4.45;;;;;;;18.60;64.58;101652.30;1689249;83;25808;-55
2022/06/04 05:32:19;;;;;;;10.30;4.47;;;;;;;18.68;64.48;101648.72;1685951;83;25842;-55
2022/06/04 05:34:46;;;;;;;13.13;4.25;;;;;;;18.72;63.90;101653.66;1684885;84;25815;-56
2022/06/04 05:37:13;;;;;;;9.38;4.47;;;;;;;18.78;63.50;101650.25;1684755;85;25504;-55
2022/06/04 05:39:40;;;;;;;19.02;4.40;;;;;;;18.86;63.02;101656.76;1665021;84;28306;-55
2022/06/04 05:42:09;;;;;;;5.90;3.83;;;;;;;18.91;62.79;101655.23;1655304;86;25790;-56
2022/06/04 05:44:37;;;;;;;17.52;3.92;;;;;;;19.00;62.47;101657.47;1655941;86;25789;-56
2022/06/04 05:47:04;;;;;;;8.45;4.47;;;;;;;19.11;62.25;101654.06;1679371;85;25823;-55
2022/06/04 05:49:31;;;;;;;11.90;4.42;;;;;;;19.22;60.97;101659.17;1684986;85;25976;-56
2022/06/04 05:51:58;;;;;;;11.08;3.50;;;;;;;19.35;58.62;101652.66;1690762;84;27487;-56
2022/06/04 05:54:25;;;;;;;11.03;3.20;;;;;;;19.49;57.99;101647.53;1661556;86;25814;-56
2022/06/04 05:56:52;;;;;;;6.62;2.90;;;;;;;19.63;56.89;101654.16;1675252;84;25786;-55
2022/06/04 05:59:23;;;;;;;13.55;2.70;;;;;;;19.76;56.34;101648.14;1662155;85;25826;-55
2022/06/04 06:01:50;;;;;;;18.98;2.72;;;;;;;19.89;55.38;101654.45;1674646;85;25784;-55
2022/06/04 06:04:20;;;;;;;17.27;2.33;;;;;;;20.00;54.70;101651.30;1668904;84;27468;-56
2022/06/04 06:06:51;;;;;;;2.62;1.72;;;;;;;20.11;51.36;101656.91;1704084;83;25807;-54
2022/06/04 06:09:21;;;;;;;7.75;1.87;;;;;;;20.21;51.20;101664.37;1691878;84;25978;-56
2022/06/04 06:11:51;;;;;;;5.10;1.60;;;;;;;20.32;51.36;101660.38;1699776;84;25804;-55
2022/06/04 06:14:19;;;;;;;4.55;1.50;;;;;;;20.43;50.78;101655.02;1691703;84;25833;-56
2022/06/04 06:16:50;;;;;;;10.45;2.25;;;;;;;20.55;50.24;101648.13;1704845;83;27522;-57
2022/06/04 06:19:21;;;;;;;3.15;1.85;;;;;;;20.67;48.94;101654.02;1691559;84;25713;-57
2022/06/04 06:21:48;;;;;;;12.73;2.80;;;;;;;20.76;47.86;101652.95;1691705;84;25812;-58
2022/06/04 06:24:16;;;;;;;7.00;1.65;;;;;;;20.85;48.48;101653.73;1692049;84;25731;-55
2022/06/04 06:26:52;;;;;;;5.87;1.55;;;;;;;20.96;47.56;101647.00;1704517;83;25795;-56
2022/06/04 06:29:23;;;;;;;14.38;1.98;;;;;;;21.03;47.37;101643.85;1687032;84;27447;-55
2022/06/04 06:31:51;;;;;;;11.60;1.80;;;;;;;21.13;46.97;101634.00;1673664;84;25855;-56
2022/06/04 06:34:18;;;;;;;25.82;2.02;;;;;;;21.21;46.72;101633.09;1685072;85;25802;-56
2022/06/04 06:36:46;;;;;;;9.78;1.50;;;;;;;21.29;46.99;101633.53;1697186;84;26268;-56
2022/06/04 06:39:14;;;;;;;2.27;1.30;;;;;;;21.37;45.64;101640.29;1699979;84;26365;-55
2022/06/04 06:41:41;;;;;;;8.90;1.55;;;;;;;21.41;45.37;101631.52;1696618;84;27459;-56
2022/06/04 06:44:10;;;;;;;3.20;1.45;;;;;;;21.48;46.07;101638.44;1685067;85;25764;-56
2022/06/04 06:46:42;;;;;;;5.17;1.30;;;;;;;21.55;45.52;101644.02;1694371;84;25648;-56
2022/06/04 06:49:14;;;;;;;7.15;2.17;;;;;;;21.63;44.85;101640.39;1700448;83;25946;-56
2022/06/04 06:51:47;;;;;;;14.23;1.80;;;;;;;21.71;44.84;101630.70;1700175;83;25736;-56
2022/06/04 06:54:16;;;;;;;1.70;1.17;;;;;;;21.78;45.54;101628.91;1699698;84;27459;-56
2022/06/04 06:56:46;;;;;;;8.53;1.80;;;;;;;21.86;45.02;101621.11;1699965;83;25515;-56
2022/06/04 06:59:13;;;;;;;11.15;1.70;;;;;;;21.95;45.10;101613.63;1700025;84;25747;-56
2022/06/04 07:01:42;;;;;;;13.62;1.80;;;;;;;22.04;44.99;101617.95;1700061;84;26424;-56
2022/06/04 07:04:10;;;;;;;4.12;1.27;;;;;;;22.11;45.03;101617.51;1689769;83;26236;-56
2022/06/04 07:06:42;;;;;;;9.03;1.70;;;;;;;22.20;44.77;101621.84;1684753;85;27476;-56
2022/06/04 07:09:20;;;;;;;23.22;2.30;;;;;;;22.27;44.71;101624.66;1685108;85;25753;-55
2022/06/04 07:11:48;;;;;;;9.20;1.52;;;;;;;22.36;44.27;101628.14;1685304;85;25761;-55
2022/06/04 07:14:16;;;;;;;5.03;1.85;;;;;;;22.42;44.00;101634.75;1685197;83;26742;-56
2022/06/04 07:16:44;;;;;;;25.50;2.27;;;;;;;22.51;43.42;101622.62;1685217;85;25827;-56
2022/06/04 07:19:13;;;;;;;7.17;1.25;;;;;;;22.60;42.96;101617.33;1687302;83;28212;-56
2022/06/04 07:21:41;;;;;;;4.53;1.62;;;;;;;22.70;42.56;101620.27;1686705;83;25859;-56
2022/06/04 07:24:08;;;;;;;7.47;1.32;;;;;;;22.78;42.69;101618.26;1685307;83;25829;-56
2022/06/04 07:26:36;;;;;;;1.27;1.10;;;;;;;22.87;42.93;101622.23;1685666;85;26001;-55
2022/06/04 07:29:03;;;;;;;7.20;1.32;;;;;;;22.93;42.03;101615.95;1693388;84;27380;-55
2022/06/04 07:31:31;;;;;;;15.63;1.45;;;;;;;23.02;42.17;101616.13;1700305;84;27434;-55
2022/06/04 07:33:58;;;;;;;7.70;2.17;;;;;;;23.10;41.72;101613.77;1704231;83;25946;-56
2022/06/04 07:36:36;;;;;;;3.40;1.75;;;;;;;23.15;41.43;101605.78;1703332;83;25800;-56
2022/06/04 07:39:07;;;;;;;13.03;1.65;;;;;;;23.25;41.01;101602.73;1724612;82;25727;-57
2022/06/04 07:41:43;;;;;;;11.85;1.40;;;;;;;23.36;40.51;101606.80;1710557;83;25776;-56
2022/06/04 07:44:12;;;;;;;4.30;1.62;;;;;;;23.43;40.30;101598.95;1699881;84;27481;-56
2022/06/04 07:46:41;;;;;;;4.65;1.30;;;;;;;23.52;40.75;101599.62;1680887;84;25716;-56
2022/06/04 07:49:10;;;;;;;9.05;1.22;;;;;;;23.61;40.88;101596.20;1670415;85;25731;-56
2022/06/04 07:51:38;;;;;;;5.03;1.25;;;;;;;23.69;39.50;101586.41;1687385;84;25747;-56
2022/06/04 07:54:08;;;;;;;6.60;1.40;;;;;;;23.76;39.31;101592.77;1699871;84;25745;-56
2022/06/04 07:56:36;;;;;;;4.12;1.50;;;;;;;23.82;39.43;101579.26;1700140;84;26919;-56
2022/06/04 07:59:06;;;;;;;6.30;1.10;;;;;;;23.89;39.60;101580.16;1699722;84;25789;-56
2022/06/04 08:01:33;;;;;;;7.97;1.30;;;;;;;23.97;39.98;101574.52;1700171;84;25742;-56
2022/06/04 08:04:00;;;;;;;6.62;1.82;;;;;;;24.09;39.98;101577.50;1699990;83;25929;-57
2022/06/04 08:06:29;;;;;;;8.55;1.20;;;;;;;24.21;39.39;101573.62;1697604;83;25343;-56
2022/06/04 08:08:57;;;;;;;6.90;2.95;;;;;;;24.34;39.29;101569.50;1695627;83;27498;-56
2022/06/04 08:11:36;;;;;;;10.05;1.57;;;;;;;24.49;39.51;101572.61;1695937;84;25745;-56
2022/06/04 08:14:16;;;;;;;6.28;1.90;;;;;;;24.65;39.20;101570.83;1695866;84;25753;-56
2022/06/04 08:16:48;;;;;;;6.80;1.72;;;;;;;24.83;38.97;101565.25;1695725;83;26148;-56
2022/06/04 08:19:16;;;;;;;10.38;1.30;;;;;;;24.99;38.26;101555.72;1695693;84;25722;-56
2022/06/04 08:21:45;;;;;;;2.08;1.80;;;;;;;25.13;37.88;101559.30;1695591;84;27462;-56
2022/06/04 08:24:15;;;;;;;3.50;1.62;;;;;;;25.22;37.89;101555.26;1695670;84;26474;-56
2022/06/04 08:26:46;;;;;;;5.50;2.08;;;;;;;25.36;37.73;101563.47;1695986;84;25754;-56
2022/06/04 08:29:14;;;;;;;11.60;1.70;;;;;;;25.45;37.40;101563.07;1699991;83;26953;-56
2022/06/04 08:31:42;;;;;;;2.85;1.65;;;;;;;25.53;37.82;101555.63;1700254;83;25707;-56
2022/06/04 08:34:11;;;;;;;6.00;2.08;;;;;;;25.63;37.70;101558.23;1699915;84;27450;-56
2022/06/04 08:36:38;;;;;;;3.08;1.75;;;;;;;25.78;37.40;101550.20;1699876;84;25665;-56
2022/06/04 08:39:05;;;;;;;8.40;2.20;;;;;;;25.86;36.76;101545.84;1699912;84;25649;-56
2022/06/04 08:41:58;;;;;;;5.62;1.55;;;;;;;25.92;37.05;101540.83;1700214;83;25805;-57
2022/06/04 08:44:36;;;;;;;6.25;1.90;;;;;;;26.09;37.16;101536.20;1699882;84;25735;-56
2022/06/04 08:47:26;;;;;;;4.55;1.60;;;;;;;26.36;36.40;101534.09;1662066;83;27570;-57
2022/06/04 08:50:19;;;;;;;15.20;2.02;;;;;;;26.56;36.01;101531.20;1629002;88;25854;-56
2022/06/04 08:53:00;;;;;;;12.25;1.70;;;;;;;26.78;35.99;101524.47;1687609;84;25560;-56
2022/06/04 08:58:44;;;;;;;8.78;1.20;;;;;;;27.23;35.32;101521.97;1691901;84;25819;-57
2022/06/04 09:01:19;;;;;;;15.18;1.87;;;;;;;27.23;34.83;101520.59;1692960;83;28546;-56
2022/06/04 09:03:55;;;;;;;6.00;1.72;;;;;;;27.22;34.58;101518.38;1691040;84;25729;-56
2022/06/04 09:06:34;;;;;;;11.95;1.87;;;;;;;27.27;34.57;101509.41;1682945;84;26451;-56
2022/06/04 09:09:38;;;;;;;7.40;1.17;;;;;;;27.41;34.09;101512.30;1662959;86;26846;-56
2022/06/04 09:12:18;;;;;;;6.20;1.30;;;;;;;27.51;34.21;101507.66;1655874;83;25314;-55
2022/06/04 09:14:56;;;;;;;7.83;1.22;;;;;;;27.63;34.04;101507.72;1699487;84;27589;-56
2022/06/04 09:17:43;;;;;;;3.65;1.40;;;;;;;27.78;33.87;101500.41;1699117;84;25793;-56
2022/06/04 09:20:33;;;;;;;9.80;1.62;;;;;;;27.96;33.59;101510.55;1720248;83;25725;-56
2022/06/04 09:23:28;;;;;;;16.80;1.85;;;;;;;28.17;33.03;101506.98;1720840;83;26778;-55
2022/06/04 09:26:16;;;;;;;2.92;1.00;;;;;;;28.33;32.98;101495.23;1709157;83;25845;-56
2022/06/04 09:29:07;;;;;;;4.30;1.22;;;;;;;28.63;32.98;101492.06;1685157;84;27494;-56
2022/06/04 09:31:55;;;;;;;6.05;1.25;;;;;;;29.00;32.08;101480.22;1694854;84;25941;-56
2022/06/04 09:34:39;;;;;;;21.80;1.37;;;;;;;29.30;32.32;101475.05;1698841;83;26044;-56
2022/06/04 09:37:10;;;;;;;5.85;1.32;;;;;;;29.46;31.12;101472.08;1694892;83;25807;-56
2022/06/04 09:39:41;;;;;;;5.72;1.30;;;;;;;29.55;31.42;101466.14;1699038;83;25817;-56
2022/06/04 09:42:19;;;;;;;7.60;1.32;;;;;;;29.94;31.47;101463.03;1697688;83;28338;-57
2022/06/04 09:44:54;;;;;;;6.83;1.10;;;;;;;30.34;30.17;101450.66;1701772;83;25903;-56
2022/06/04 09:47:34;;;;;;;2.85;1.40;;;;;;;30.40;30.79;101451.03;1695324;83;25687;-56
2022/06/04 09:50:07;;;;;;;8.70;1.25;;;;;;;30.41;30.86;101450.77;1695550;83;25829;-56
2022/06/04 09:52:43;;;;;;;10.40;1.62;;;;;;;30.57;30.96;101441.34;1668445;85;32735;-56
2022/06/04 09:55:26;;;;;;;9.85;1.17;;;;;;;31.10;30.50;101443.72;1691027;84;27500;-56
2022/06/04 09:58:19;;;;;;;11.12;1.50;;;;;;;31.64;29.38;101439.66;1702434;84;25748;-56
2022/06/04 10:01:03;;;;;;;8.20;1.07;;;;;;;31.89;29.15;101436.00;1700033;84;25712;-56
2022/06/04 10:03:36;;;;;;;2.85;1.17;;;;;;;31.93;28.87;101436.59;1700097;83;25763;-56
2022/06/04 10:06:08;;;;;;;6.20;1.00;;;;;;;32.00;29.11;101432.21;1699085;84;25727;-56
2022/06/04 10:11:34;;;;;;;6.17;1.17;;;;;;;31.85;28.31;101432.91;1697657;82;25880;-56
2022/06/04 10:14:02;;;;;;;2.50;1.00;;;;;;;31.77;27.74;101423.13;1709947;83;25693;-56
2022/06/04 10:16:34;;;;;;;8.30;1.00;;;;;;;31.77;27.44;101420.34;1704659;84;25776;-57
2022/06/04 10:19:20;;;;;;;4.35;1.17;;;;;;;31.67;27.63;101420.23;1704856;84;25821;-56
2022/06/04 10:21:52;;;;;;;8.33;1.00;;;;;;;31.63;27.58;101411.55;1704786;82;27539;-56
2022/06/04 10:24:25;;;;;;;7.80;1.10;;;;;;;31.71;28.03;101411.64;1696342;84;25790;-57
2022/06/04 10:27:34;;;;;;;5.67;1.00;;;;;;;31.88;27.83;101412.06;1705242;83;25481;-57
2022/06/04 10:30:24;;;;;;;3.47;1.37;;;;;;;32.02;27.58;101409.67;1685292;84;25799;-57
2022/06/04 10:33:38;;;;;;;8.75;1.00;;;;;;;32.29;27.65;101411.05;1684781;85;25719;-57
2022/06/04 10:36:39;;;;;;;6.22;1.72;;;;;;;32.36;27.92;101408.86;1684671;85;27474;-57
2022/06/04 10:39:23;;;;;;;6.22;2.98;;;;;;;32.28;27.52;101403.80;1684760;84;25848;-56
2022/06/04 10:41:58;;;;;;;9.03;1.32;;;;;;;32.20;27.89;101402.30;1684584;85;25780;-56
2022/06/04 10:44:36;;;;;;;4.80;1.20;;;;;;;31.99;28.06;101406.87;1684613;84;25857;-55
2022/06/04 10:47:21;;;;;;;3.33;1.25;;;;;;;31.99;27.80;101398.53;1678463;84;25746;-56
2022/06/04 10:50:09;;;;;;;5.30;1.35;;;;;;;32.09;27.78;101393.05;1677177;85;27443;-56
2022/06/04 10:52:44;;;;;;;8.88;1.27;;;;;;;32.21;27.73;101392.03;1683093;85;25902;-56
2022/06/04 10:55:41;;;;;;;10.13;1.17;;;;;;;32.29;27.28;101390.17;1659707;85;25810;-56
2022/06/04 10:58:36;;;;;;;9.25;1.22;;;;;;;32.57;26.95;101384.77;1683376;85;25899;-56
2022/06/04 11:01:24;;;;;;;29.92;2.08;;;;;;;32.98;26.30;101377.17;1683402;85;25506;-56
2022/06/04 11:04:08;;;;;;;9.25;1.37;;;;;;;33.09;26.01;101367.75;1682833;84;27459;-56
2022/06/04 11:06:49;;;;;;;10.13;1.90;;;;;;;32.92;26.92;101364.34;1700746;82;25818;-56
2022/06/04 11:09:20;;;;;;;5.90;1.52;;;;;;;33.54;26.75;101361.16;1704343;84;25788;-56
2022/06/04 11:12:10;;;;;;;8.78;1.20;;;;;;;34.42;26.40;101360.30;1705098;82;25901;-57
2022/06/04 11:14:57;;;;;;;4.42;1.00;;;;;;;35.23;24.92;101358.87;1690051;84;27275;-55
2022/06/04 11:17:51;;;;;;;7.33;1.32;;;;;;;36.00;23.48;101358.30;1704266;84;29558;-56
2022/06/04 11:20:29;;;;;;;7.62;1.20;;;;;;;36.57;23.16;101347.07;1704239;84;26090;-56
2022/06/04 11:23:24;;;;;;;3.00;0.90;;;;;;;37.03;22.05;101345.09;1704382;84;25734;-57
2022/06/04 11:26:04;;;;;;;9.48;1.10;;;;;;;37.38;21.99;101336.48;1704295;84;43868;-57
2022/06/04 11:28:32;;;;;;;6.90;1.37;;;;;;;37.90;22.09;101321.00;1704317;84;25693;-56
2022/06/04 11:31:14;;;;;;;6.15;1.12;;;;;;;38.34;21.34;101313.99;1704470;84;27489;-56
2022/06/04 11:34:07;;;;;;;8.88;1.80;;;;;;;38.56;19.93;101311.02;1701000;82;25830;-56
2022/06/04 11:36:56;;;;;;;3.08;0.93;;;;;;;38.78;20.47;101301.82;1704317;84;25519;-56
2022/06/04 11:39:41;;;;;;;9.83;1.22;;;;;;;39.01;20.08;101297.66;1706503;82;25816;-57
2022/06/04 11:42:29;;;;;;;5.33;1.10;;;;;;;39.27;19.53;101287.22;1704457;84;25811;-56
2022/06/04 11:45:07;;;;;;;8.23;1.00;;;;;;;39.55;19.48;101292.15;1704363;84;27652;-56
2022/06/04 11:47:52;;;;;;;2.10;1.10;;;;;;;40.32;19.01;101286.98;1675721;85;25736;-56
2022/06/04 11:50:33;;;;;;;10.85;2.50;;;;;;;40.70;18.52;101289.26;1676305;85;25696;-57
2022/06/04 11:53:20;;;;;;;3.75;0.75;;;;;;;41.13;18.33;101283.42;1682317;85;25989;-57
2022/06/04 11:56:13;;;;;;;3.98;1.12;;;;;;;41.30;17.66;101278.31;1683023;85;26117;-56
2022/06/04 11:59:13;;;;;;;8.05;1.35;;;;;;;41.79;17.87;101265.94;1683552;85;28132;-57
2022/06/04 12:01:48;;;;;;;7.65;1.47;;;;;;;42.42;17.34;101263.92;1682710;85;25797;-56
2022/06/04 12:04:26;;;;;;;4.45;1.45;;;;;;;42.81;17.07;101255.59;1683525;85;25746;-57
2022/06/04 12:07:16;;;;;;;5.60;1.07;;;;;;;43.30;16.53;101252.16;1695738;84;25808;-56
2022/06/04 12:10:03;;;;;;;2.80;1.07;;;;;;;43.66;15.76;101252.62;1707362;84;25832;-56
2022/06/04 12:12:50;;;;;;;5.50;0.85;;;;;;;43.78;15.36;101250.39;1706663;82;27511;-56